createdAt,value
2019-03-19T00:01:47.325Z,11.20
2019-03-19T00:04:16.848Z,12.30
2019-03-19T00:06:46.382Z,27.77
2019-03-19T00:09:16.482Z,19.20
2019-03-19T00:11:46.486Z,15.43
2019-03-19T00:14:17.017Z,14.03
2019-03-19T00:16:46.569Z,14.43
2019-03-19T00:19:16.521Z,21.10
2019-03-19T00:21:46.032Z,12.57
2019-03-19T00:24:15.910Z,14.67
2019-03-19T00:26:47.394Z,17.27
2019-03-19T00:29:18.285Z,13.20
2019-03-19T00:31:48.948Z,15.40
2019-03-19T00:34:19.199Z,15.07
2019-03-19T00:36:49.264Z,9.50
2019-03-19T00:39:18.876Z,10.43
2019-03-19T00:41:48.668Z,13.13
2019-03-19T00:44:21.208Z,11.73
2019-03-19T00:46:51.117Z,11.87
2019-03-19T00:49:20.765Z,17.30
2019-03-19T00:51:50.439Z,12.73
2019-03-19T00:54:20.041Z,18.87
2019-03-19T00:56:49.680Z,14.70
2019-03-19T00:59:20.212Z,24.77
2019-03-19T01:01:53.254Z,11.90
2019-03-19T01:04:22.787Z,15.60
2019-03-19T01:06:53.711Z,19.40
2019-03-19T01:09:23.327Z,9.80
2019-03-19T01:11:52.979Z,10.80
2019-03-19T01:14:22.741Z,9.40
2019-03-19T01:16:53.063Z,15.83
2019-03-19T01:19:22.684Z,13.23
2019-03-19T01:21:52.207Z,15.63
2019-03-19T01:24:21.741Z,16.70
2019-03-19T01:26:51.717Z,11.07
2019-03-19T01:29:22.009Z,19.60
2019-03-19T01:31:52.607Z,11.50
2019-03-19T01:34:22.200Z,15.33
2019-03-19T01:36:53.049Z,25.27
2019-03-19T01:39:22.629Z,16.30
2019-03-19T01:41:52.179Z,19.20
2019-03-19T01:44:21.776Z,18.97
2019-03-19T01:46:51.941Z,13.10
2019-03-19T01:49:21.754Z,12.00
2019-03-19T01:51:51.397Z,16.57
2019-03-19T01:54:21.183Z,18.70
2019-03-19T01:56:50.796Z,9.17
2019-03-19T01:59:20.402Z,11.60
2019-03-19T02:01:50.489Z,18.37
2019-03-19T02:04:21.208Z,10.07
2019-03-19T02:06:51.413Z,19.17
2019-03-19T02:09:21.028Z,16.60
2019-03-19T02:11:50.593Z,10.70
2019-03-19T02:14:20.419Z,10.40
2019-03-19T02:16:50.120Z,11.83
2019-03-19T02:19:21.772Z,12.63
2019-03-19T02:21:51.479Z,10.82
2019-03-19T02:24:21.671Z,15.83
2019-03-19T02:26:51.645Z,16.57
2019-03-19T02:29:21.920Z,22.97
2019-03-19T02:31:51.567Z,18.47
2019-03-19T02:34:23.553Z,17.23
2019-03-19T02:36:53.322Z,19.00
2019-03-19T02:39:22.908Z,13.40
2019-03-19T02:41:53.540Z,17.80
2019-03-19T02:44:23.206Z,16.30
2019-03-19T02:46:52.779Z,16.57
2019-03-19T02:49:23.409Z,17.57
2019-03-19T02:51:53.707Z,15.63
2019-03-19T02:54:23.310Z,17.20
2019-03-19T02:56:52.857Z,26.85
2019-03-19T02:59:22.421Z,15.17
2019-03-19T03:01:52.005Z,18.20
2019-03-19T03:04:22.789Z,33.37
2019-03-19T03:06:52.842Z,28.47
2019-03-19T03:09:24.440Z,16.90
2019-03-19T03:11:53.982Z,28.37
2019-03-19T03:14:23.507Z,14.57
2019-03-19T03:16:53.081Z,12.17
2019-03-19T03:19:22.673Z,19.93
2019-03-19T03:21:54.578Z,23.30
2019-03-19T03:24:24.090Z,26.07
2019-03-19T03:26:54.207Z,15.37
2019-03-19T03:29:23.726Z,19.63
2019-03-19T03:31:53.754Z,16.43
2019-03-19T03:34:23.426Z,22.60
2019-03-19T03:36:54.127Z,16.33
2019-03-19T03:39:23.629Z,15.93
2019-03-19T03:41:53.149Z,26.13
2019-03-19T03:44:22.782Z,24.53
2019-03-19T03:46:52.289Z,16.00
2019-03-19T03:49:21.852Z,20.93
2019-03-19T03:51:51.637Z,16.23
2019-03-19T03:54:21.606Z,18.30
2019-03-19T03:57:02.056Z,13.13
2019-03-19T03:59:22.848Z,21.23
2019-03-19T04:01:52.351Z,20.30
2019-03-19T04:04:21.877Z,20.47
2019-03-19T04:06:51.464Z,25.80
2019-03-19T04:09:21.162Z,14.60
2019-03-19T04:11:50.821Z,13.20
2019-03-19T04:14:20.325Z,15.60
2019-03-19T04:16:49.836Z,18.27
2019-03-19T04:19:20.350Z,27.00
2019-03-19T04:21:49.910Z,18.83
2019-03-19T04:24:20.801Z,28.77
2019-03-19T04:26:50.509Z,16.10
2019-03-19T04:29:20.171Z,16.77
2019-03-19T04:31:49.844Z,25.67
2019-03-19T04:34:19.337Z,20.63
2019-03-19T04:36:48.866Z,21.10
2019-03-19T04:39:20.288Z,16.60
2019-03-19T04:41:49.849Z,25.00
2019-03-19T04:44:19.362Z,20.40
2019-03-19T04:46:48.969Z,28.98
2019-03-19T04:49:18.517Z,27.42
2019-03-19T04:51:48.032Z,24.33
2019-03-19T04:54:19.090Z,27.67
2019-03-19T04:56:48.681Z,15.70
2019-03-19T04:59:18.381Z,17.98
2019-03-19T05:01:47.912Z,27.03
2019-03-19T05:04:17.417Z,20.00
2019-03-19T05:06:46.931Z,29.55
2019-03-19T05:09:17.187Z,28.27
2019-03-19T05:11:47.469Z,21.33
2019-03-19T05:14:17.074Z,29.95
2019-03-19T05:16:46.790Z,27.87
2019-03-19T05:19:16.285Z,22.27
2019-03-19T05:21:45.827Z,29.07
2019-03-19T05:24:15.335Z,26.23
2019-03-19T05:26:45.291Z,25.53
2019-03-19T05:29:14.779Z,19.80
2019-03-19T05:31:44.794Z,30.08
2019-03-19T05:34:14.350Z,19.37
2019-03-19T05:36:43.904Z,25.43
2019-03-19T05:39:13.421Z,21.90
2019-03-19T05:41:44.266Z,26.27
2019-03-19T05:44:13.873Z,33.40
2019-03-19T05:46:43.743Z,34.70
2019-03-19T05:49:13.288Z,24.80
2019-03-19T05:51:42.847Z,30.97
2019-03-19T05:54:12.404Z,17.67
2019-03-19T05:56:42.376Z,26.90
2019-03-19T05:59:11.923Z,33.03
2019-03-19T06:01:41.639Z,32.50
2019-03-19T06:04:11.141Z,21.70
2019-03-19T06:06:40.654Z,23.43
2019-03-19T06:09:10.300Z,21.57
2019-03-19T06:11:40.081Z,27.17
2019-03-19T06:14:10.032Z,25.00
2019-03-19T06:16:39.642Z,32.00
2019-03-19T06:19:09.138Z,24.80
2019-03-19T06:21:38.712Z,23.37
2019-03-19T06:24:08.300Z,22.90
2019-03-19T06:26:37.823Z,32.97
2019-03-19T06:29:08.232Z,22.57
2019-03-19T06:31:37.735Z,26.30
2019-03-19T06:34:07.320Z,31.07
2019-03-19T06:36:37.002Z,28.00
2019-03-19T06:39:07.563Z,32.67
2019-03-19T06:41:37.356Z,37.33
2019-03-19T06:44:07.739Z,26.57
2019-03-19T06:46:38.088Z,35.03
2019-03-19T06:49:07.714Z,26.23
2019-03-19T06:51:37.289Z,28.37
2019-03-19T06:54:07.161Z,39.83
2019-03-19T06:56:36.740Z,35.50
2019-03-19T06:59:06.262Z,36.47
2019-03-19T07:01:38.507Z,39.40
2019-03-19T07:04:08.091Z,45.13
2019-03-19T07:06:37.631Z,41.97
2019-03-19T07:09:08.161Z,33.40
2019-03-19T07:11:37.764Z,42.37
2019-03-19T07:14:07.638Z,36.00
2019-03-19T07:16:37.388Z,50.17
2019-03-19T07:19:06.939Z,33.97
2019-03-19T07:21:36.433Z,35.07
2019-03-19T07:24:05.982Z,25.03
2019-03-19T07:26:35.483Z,26.20
2019-03-19T07:29:05.018Z,32.53
2019-03-19T07:31:35.256Z,23.33
2019-03-19T07:34:04.785Z,32.30
2019-03-19T07:36:35.473Z,38.90
2019-03-19T07:39:07.763Z,27.20
2019-03-19T07:41:37.299Z,24.43
2019-03-19T07:44:07.188Z,23.13
2019-03-19T07:46:37.321Z,31.13
2019-03-19T07:49:06.828Z,32.90
2019-03-19T07:51:36.877Z,27.30
2019-03-19T07:54:06.382Z,30.47
2019-03-19T07:56:35.905Z,29.77
2019-03-19T07:59:05.428Z,28.77
2019-03-19T08:01:35.822Z,38.03
2019-03-19T08:04:05.940Z,31.23
2019-03-19T08:06:35.442Z,27.40
2019-03-19T08:09:07.075Z,25.83
2019-03-19T08:11:37.730Z,35.20
2019-03-19T08:14:07.231Z,24.83
2019-03-19T08:16:37.244Z,26.03
2019-03-19T08:19:06.798Z,25.00
2019-03-19T08:21:36.578Z,26.37
2019-03-19T08:24:06.096Z,21.23
2019-03-19T08:26:37.627Z,22.07
2019-03-19T08:29:07.184Z,38.07
2019-03-19T08:31:36.773Z,24.53
2019-03-19T08:34:06.264Z,22.33
2019-03-19T08:36:36.121Z,26.47
2019-03-19T08:39:06.867Z,26.53
2019-03-19T08:41:36.343Z,26.90
2019-03-19T08:44:06.176Z,18.07
2019-03-19T08:46:35.853Z,20.50
2019-03-19T08:49:06.634Z,27.60
2019-03-19T08:51:36.346Z,19.93
2019-03-19T08:54:05.937Z,26.37
2019-03-19T08:56:35.433Z,25.33
2019-03-19T08:59:06.156Z,19.63
2019-03-19T09:01:35.812Z,17.10
2019-03-19T09:04:07.434Z,21.07
2019-03-19T09:06:37.183Z,17.87
2019-03-19T09:09:08.553Z,23.03
2019-03-19T09:11:38.064Z,16.10
2019-03-19T09:14:08.148Z,19.67
2019-03-19T09:16:37.872Z,27.57
2019-03-19T09:19:07.637Z,15.50
2019-03-19T09:21:37.199Z,21.93
2019-03-19T09:24:06.777Z,32.03
2019-03-19T09:26:36.615Z,19.70
2019-03-19T09:29:16.065Z,22.10
2019-03-19T09:31:37.604Z,16.33
2019-03-19T09:34:07.850Z,16.67
2019-03-19T09:36:37.490Z,17.50
2019-03-19T09:39:08.000Z,20.27
2019-03-19T09:41:39.812Z,17.77
2019-03-19T09:44:09.367Z,15.77
2019-03-19T09:46:38.861Z,15.60
2019-03-19T09:49:08.388Z,19.63
2019-03-19T09:51:38.369Z,21.07
2019-03-19T09:54:07.928Z,19.60
2019-03-19T09:56:37.444Z,17.03
2019-03-19T09:59:06.988Z,17.93
2019-03-19T10:01:36.624Z,11.70
2019-03-19T10:04:06.598Z,10.70
2019-03-19T10:06:36.098Z,10.83
2019-03-19T10:09:07.608Z,7.80
2019-03-19T10:11:37.199Z,10.60
2019-03-19T10:14:06.690Z,12.97
2019-03-19T10:16:36.327Z,11.33
2019-03-19T10:19:07.152Z,12.13
2019-03-19T10:21:36.826Z,12.80
2019-03-19T10:24:06.526Z,8.60
2019-03-19T10:26:36.061Z,13.77
2019-03-19T10:29:06.640Z,15.00
2019-03-19T10:31:36.205Z,10.23
2019-03-19T10:34:05.806Z,10.47
2019-03-19T10:36:35.401Z,7.80
2019-03-19T10:39:09.041Z,15.30
2019-03-19T10:41:38.712Z,16.17
2019-03-19T10:44:08.274Z,19.03
2019-03-19T10:46:37.769Z,18.53
2019-03-19T10:49:07.310Z,19.73
2019-03-19T10:51:39.046Z,9.97
2019-03-19T10:54:08.608Z,14.90
2019-03-19T10:56:39.042Z,16.67
2019-03-19T10:59:08.643Z,12.50
2019-03-19T11:01:38.223Z,12.03
2019-03-19T11:04:08.014Z,14.97
2019-03-19T11:06:37.509Z,15.60
2019-03-19T11:09:07.692Z,15.27
2019-03-19T11:11:38.353Z,14.37
2019-03-19T11:14:08.007Z,14.10
2019-03-19T11:16:37.717Z,14.73
2019-03-19T11:19:07.307Z,14.27
2019-03-19T11:21:36.799Z,15.23
2019-03-19T11:24:06.295Z,14.43
2019-03-19T11:26:35.937Z,12.10
2019-03-19T11:29:05.485Z,13.70
2019-03-19T11:31:35.031Z,14.30
2019-03-19T11:34:04.588Z,17.60
2019-03-19T11:36:34.148Z,20.97
2019-03-19T11:39:05.657Z,14.43
2019-03-19T11:41:35.268Z,16.40
2019-03-19T11:44:06.221Z,13.87
2019-03-19T11:46:35.734Z,15.30
2019-03-19T11:49:07.314Z,13.97
2019-03-19T11:51:37.757Z,13.87
2019-03-19T11:54:07.696Z,11.37
2019-03-19T11:56:37.255Z,20.70
2019-03-19T11:59:07.112Z,12.80
2019-03-19T12:01:36.737Z,12.50
2019-03-19T12:04:07.790Z,11.67
2019-03-19T12:06:37.403Z,16.67
2019-03-19T12:09:07.518Z,15.03
2019-03-19T12:11:37.115Z,13.03
2019-03-19T12:14:07.874Z,13.00
2019-03-19T12:16:37.380Z,10.83
2019-03-19T12:19:07.834Z,14.63
2019-03-19T12:21:37.472Z,14.37
2019-03-19T12:24:06.961Z,13.10
2019-03-19T12:26:36.507Z,9.47
2019-03-19T12:29:08.670Z,16.70
2019-03-19T12:31:38.341Z,12.00
2019-03-19T12:34:07.846Z,10.97
2019-03-19T12:36:37.418Z,15.90
2019-03-19T12:39:09.806Z,14.50
2019-03-19T12:41:39.444Z,14.10
2019-03-19T12:44:09.165Z,10.90
2019-03-19T12:46:38.940Z,15.30
2019-03-19T12:49:08.545Z,15.37
2019-03-19T12:51:38.325Z,13.27
2019-03-19T12:54:09.018Z,10.00
2019-03-19T12:56:38.506Z,14.07
2019-03-19T12:59:19.385Z,17.10
2019-03-19T13:01:39.403Z,9.47
2019-03-19T13:04:09.137Z,12.70
2019-03-19T13:06:38.662Z,12.03
2019-03-19T13:09:08.946Z,10.13
2019-03-19T13:11:38.493Z,19.37
2019-03-19T13:14:08.101Z,16.47
2019-03-19T13:16:37.589Z,13.83
2019-03-19T13:19:13.375Z,13.90
2019-03-19T13:21:42.880Z,10.43
2019-03-19T13:24:12.392Z,11.47
2019-03-19T13:26:41.886Z,16.80
2019-03-19T13:29:11.443Z,15.30
2019-03-19T13:31:41.910Z,12.40
2019-03-19T13:34:13.145Z,11.53
2019-03-19T13:36:43.065Z,13.10
2019-03-19T13:39:12.593Z,11.60
2019-03-19T13:41:42.250Z,18.27
2019-03-19T13:44:11.775Z,11.73
2019-03-19T13:46:41.546Z,16.23
2019-03-19T13:49:11.033Z,24.17
2019-03-19T13:51:40.527Z,12.73
2019-03-19T13:54:11.564Z,14.80
2019-03-19T13:56:41.065Z,14.33
2019-03-19T13:59:10.549Z,19.23
2019-03-19T14:01:40.110Z,14.43
2019-03-19T14:04:09.744Z,13.60
2019-03-19T14:06:39.244Z,18.30
2019-03-19T14:09:08.828Z,23.03
2019-03-19T14:11:39.284Z,13.13
2019-03-19T14:14:08.796Z,21.30
2019-03-19T14:16:39.273Z,16.57
2019-03-19T14:19:08.752Z,15.43
2019-03-19T14:21:38.338Z,24.70
2019-03-19T14:24:07.870Z,24.47
2019-03-19T14:26:37.366Z,13.63
2019-03-19T14:29:06.895Z,19.97
2019-03-19T14:31:36.384Z,14.13
2019-03-19T14:34:05.872Z,16.13
2019-03-19T14:36:35.431Z,18.00
2019-03-19T14:39:07.235Z,17.17
2019-03-19T14:41:38.813Z,13.43
2019-03-19T14:44:08.311Z,14.60
2019-03-19T14:46:38.811Z,12.43
2019-03-19T14:49:08.337Z,23.33
2019-03-19T14:51:37.821Z,15.30
2019-03-19T14:54:07.344Z,12.17
2019-03-19T14:56:36.841Z,18.27
2019-03-19T14:59:06.328Z,13.10
2019-03-19T15:01:35.856Z,14.70
2019-03-19T15:04:05.443Z,16.07
2019-03-19T15:06:34.957Z,21.50
2019-03-19T15:09:06.433Z,14.00
2019-03-19T15:11:36.103Z,17.87
2019-03-19T15:14:05.602Z,14.27
2019-03-19T15:16:35.092Z,15.43
2019-03-19T15:19:04.950Z,15.67
2019-03-19T15:21:34.443Z,15.80
2019-03-19T15:24:04.026Z,19.50
2019-03-19T15:26:33.574Z,22.93
2019-03-19T15:29:03.075Z,13.60
2019-03-19T15:31:32.572Z,22.37
2019-03-19T15:34:02.124Z,14.33
2019-03-19T15:36:31.893Z,21.30
2019-03-19T15:39:01.396Z,16.90
2019-03-19T15:41:30.993Z,32.30
2019-03-19T15:44:00.483Z,21.30
2019-03-19T15:46:29.981Z,17.83
2019-03-19T15:49:00.542Z,15.50
2019-03-19T15:51:30.064Z,26.57
2019-03-19T15:53:59.559Z,14.57
2019-03-19T15:56:29.072Z,14.30
2019-03-19T15:58:58.632Z,13.87
2019-03-19T16:01:28.133Z,14.70
2019-03-19T16:03:57.653Z,30.07
2019-03-19T16:06:27.166Z,22.00
2019-03-19T16:08:56.656Z,12.03
2019-03-19T16:11:26.166Z,17.23
2019-03-19T16:13:55.719Z,22.90
2019-03-19T16:16:25.213Z,16.53
2019-03-19T16:18:54.739Z,16.50
2019-03-19T16:21:24.228Z,14.53
2019-03-19T16:23:53.736Z,18.87
2019-03-19T16:26:23.432Z,16.73
2019-03-19T16:28:52.925Z,16.73
2019-03-19T16:31:22.477Z,18.40
2019-03-19T16:33:52.009Z,15.60
2019-03-19T16:36:21.526Z,20.37
2019-03-19T16:38:51.049Z,18.50
2019-03-19T16:41:20.549Z,16.10
2019-03-19T16:43:50.125Z,11.93
2019-03-19T16:46:22.098Z,25.10
2019-03-19T16:48:51.601Z,13.97
2019-03-19T16:51:21.113Z,22.53
2019-03-19T16:53:50.613Z,19.37
2019-03-19T16:56:20.130Z,25.47
2019-03-19T16:58:49.626Z,13.33
2019-03-19T17:01:19.106Z,13.00
2019-03-19T17:03:48.680Z,20.30
2019-03-19T17:06:18.163Z,18.20
2019-03-19T17:08:48.665Z,16.53
2019-03-19T17:11:18.149Z,18.87
2019-03-19T17:13:47.643Z,17.97
2019-03-19T17:16:17.172Z,18.77
2019-03-19T17:18:49.683Z,19.67
2019-03-19T17:21:19.198Z,15.63
2019-03-19T17:23:48.715Z,25.20
2019-03-19T17:26:18.362Z,12.40
2019-03-19T17:28:47.866Z,16.87
2019-03-19T17:31:17.359Z,13.33
2019-03-19T17:33:46.884Z,25.03
2019-03-19T17:36:16.390Z,18.13
2019-03-19T17:38:45.881Z,15.63
2019-03-19T17:41:15.418Z,15.23
2019-03-19T17:43:44.901Z,14.83
2019-03-19T17:46:14.391Z,16.27
2019-03-19T17:48:43.919Z,23.70
2019-03-19T17:51:13.573Z,20.13
2019-03-19T17:53:43.086Z,20.67
2019-03-19T17:56:12.612Z,27.73
2019-03-19T17:58:42.101Z,28.77
2019-03-19T18:01:17.445Z,17.57
2019-03-19T18:03:43.834Z,22.00
2019-03-19T18:06:13.356Z,21.77
2019-03-19T18:08:42.868Z,17.23
2019-03-19T18:11:12.357Z,23.73
2019-03-19T18:13:42.064Z,22.03
2019-03-19T18:16:11.747Z,20.13
2019-03-19T18:18:41.233Z,23.43
2019-03-19T18:21:10.729Z,28.43
2019-03-19T18:23:40.250Z,17.93
2019-03-19T18:26:09.748Z,20.67
2019-03-19T18:28:39.309Z,25.37
2019-03-19T18:31:08.839Z,19.40
2019-03-19T18:33:39.313Z,22.47
2019-03-19T18:36:08.800Z,20.80
2019-03-19T18:38:38.313Z,22.80
2019-03-19T18:41:07.798Z,20.80
2019-03-19T18:43:37.325Z,19.57
2019-03-19T18:46:06.820Z,29.17
2019-03-19T18:48:36.312Z,21.30
2019-03-19T18:51:05.841Z,23.97
2019-03-19T18:53:35.349Z,21.80
2019-03-19T18:56:04.843Z,18.90
2019-03-19T18:58:34.364Z,26.97
2019-03-19T19:01:04.124Z,23.73
2019-03-19T19:03:33.655Z,31.13
2019-03-19T19:06:03.137Z,46.57
2019-03-19T19:08:32.650Z,21.93
2019-03-19T19:11:04.450Z,23.80
2019-03-19T19:13:33.936Z,22.23
2019-03-19T19:16:03.480Z,16.07
2019-03-19T19:18:32.972Z,27.17
2019-03-19T19:21:02.449Z,25.83
2019-03-19T19:23:32.112Z,26.30
2019-03-19T19:26:01.605Z,27.80
2019-03-19T19:28:31.260Z,20.87
2019-03-19T19:31:00.786Z,24.83
2019-03-19T19:33:30.309Z,25.37
2019-03-19T19:35:59.796Z,26.73
2019-03-19T19:38:29.328Z,26.17
2019-03-19T19:40:58.820Z,25.47
2019-03-19T19:43:28.335Z,35.00
2019-03-19T19:45:57.841Z,25.43
2019-03-19T19:48:27.352Z,20.20
2019-03-19T19:50:56.878Z,32.97
2019-03-19T19:53:26.401Z,25.20
2019-03-19T19:55:55.881Z,25.03
2019-03-19T19:58:25.411Z,20.80
2019-03-19T20:00:54.919Z,27.07
2019-03-19T20:03:24.496Z,26.20
2019-03-19T20:05:53.988Z,21.40
2019-03-19T20:08:23.509Z,26.97
2019-03-19T20:10:53.035Z,25.80
2019-03-19T20:13:23.500Z,25.20
2019-03-19T20:15:52.988Z,31.90
2019-03-19T20:18:22.518Z,27.23
2019-03-19T20:20:52.013Z,26.00
2019-03-19T20:23:21.505Z,22.90
2019-03-19T20:25:51.020Z,26.20
2019-03-19T20:28:20.532Z,31.70
2019-03-19T20:30:50.052Z,36.97
2019-03-19T20:33:24.729Z,27.23
2019-03-19T20:35:50.729Z,23.67
2019-03-19T20:38:20.406Z,27.03
2019-03-19T20:40:49.898Z,27.90
2019-03-19T20:43:19.391Z,27.40
2019-03-19T20:45:48.897Z,23.80
2019-03-19T20:48:18.385Z,30.00
2019-03-19T20:50:47.884Z,24.03
2019-03-19T20:53:17.372Z,28.60
2019-03-19T20:55:46.890Z,26.73
2019-03-19T20:58:16.393Z,25.97
2019-03-19T21:00:45.884Z,33.13
2019-03-19T21:03:15.570Z,31.63
2019-03-19T21:05:45.080Z,25.17
2019-03-19T21:08:14.582Z,27.27
2019-03-19T21:10:44.113Z,23.63
2019-03-19T21:13:13.604Z,31.13
2019-03-19T21:15:43.101Z,29.53
2019-03-19T21:18:12.654Z,28.27
2019-03-19T21:20:42.137Z,34.80
2019-03-19T21:23:11.632Z,27.00
2019-03-19T21:25:41.165Z,27.83
2019-03-19T21:28:14.283Z,30.23
2019-03-19T21:30:41.848Z,30.00
2019-03-19T21:33:11.732Z,36.83
2019-03-19T21:35:41.298Z,28.40
2019-03-19T21:38:10.780Z,39.20
2019-03-19T21:40:40.315Z,32.23
2019-03-19T21:43:09.800Z,35.70
2019-03-19T21:45:39.452Z,40.83
2019-03-19T21:48:09.012Z,42.23
2019-03-19T21:50:38.501Z,36.03
2019-03-19T21:53:08.034Z,36.00
2019-03-19T21:55:37.528Z,35.07
2019-03-19T21:58:07.024Z,31.30
2019-03-19T22:00:36.561Z,32.27
2019-03-19T22:03:06.068Z,33.73
2019-03-19T22:05:35.561Z,35.67
2019-03-19T22:08:06.021Z,45.30
2019-03-19T22:10:35.521Z,38.00
2019-03-19T22:13:05.146Z,43.40
2019-03-19T22:15:34.953Z,40.07
2019-03-19T22:18:04.584Z,46.30
2019-03-19T22:20:34.078Z,52.63
2019-03-19T22:23:03.733Z,44.77
2019-03-19T22:25:33.250Z,31.93
2019-03-19T22:28:02.755Z,33.07
2019-03-19T22:30:32.265Z,44.37
2019-03-19T22:33:01.768Z,47.90
2019-03-19T22:35:31.426Z,30.80
2019-03-19T22:38:01.313Z,37.90
2019-03-19T22:40:30.794Z,35.33
2019-03-19T22:43:00.370Z,46.27
2019-03-19T22:45:29.852Z,43.80
2019-03-19T22:47:59.342Z,45.33
2019-03-19T22:50:28.867Z,40.63
2019-03-19T22:52:58.389Z,41.13
2019-03-19T22:55:29.303Z,45.30
2019-03-19T22:57:59.202Z,45.10
2019-03-19T23:00:33.120Z,45.67
2019-03-19T23:03:02.685Z,45.10
2019-03-19T23:05:32.276Z,55.63
2019-03-19T23:08:03.352Z,53.37
2019-03-19T23:10:32.956Z,47.70
2019-03-19T23:13:02.591Z,57.33
2019-03-19T23:15:32.109Z,56.83
2019-03-19T23:18:01.589Z,51.63
2019-03-19T23:20:31.385Z,41.60
2019-03-19T23:23:01.826Z,45.17
2019-03-19T23:25:31.593Z,66.00
2019-03-19T23:28:01.214Z,46.93
2019-03-19T23:30:30.748Z,57.50
2019-03-19T23:33:00.299Z,52.93
2019-03-19T23:35:29.803Z,55.80
2019-03-19T23:37:59.289Z,65.00
2019-03-19T23:40:29.004Z,75.70
2019-03-19T23:42:58.562Z,63.63
2019-03-19T23:45:28.057Z,73.27
2019-03-19T23:47:57.600Z,61.77
2019-03-19T23:50:27.081Z,56.73
2019-03-19T23:52:56.595Z,58.97
2019-03-19T23:55:26.126Z,60.33
2019-03-19T23:57:55.620Z,59.17
